sensor_id;sensor_type;location;lat;lon;timestamp;temperature;humidity
66190;DHT22;52992;52.084;5.412;2023-07-20T00:01:19;22.10;57.50
66190;DHT22;52992;52.084;5.412;2023-07-20T00:03:46;22.10;57.50
66190;DHT22;52992;52.084;5.412;2023-07-20T00:06:25;22.10;57.60
66190;DHT22;52992;52.084;5.412;2023-07-20T00:08:55;22.00;57.60
66190;DHT22;52992;52.084;5.412;2023-07-20T00:11:27;22.00;57.80
66190;DHT22;52992;52.084;5.412;2023-07-20T00:13:54;22.00;57.90
66190;DHT22;52992;52.084;5.412;2023-07-20T00:16:21;22.00;58.10
66190;DHT22;52992;52.084;5.412;2023-07-20T00:18:49;22.00;58.30
66190;DHT22;52992;52.084;5.412;2023-07-20T00:21:16;22.00;58.30
66190;DHT22;52992;52.084;5.412;2023-07-20T00:23:43;21.90;58.50
66190;DHT22;52992;52.084;5.412;2023-07-20T00:26:10;21.90;58.90
66190;DHT22;52992;52.084;5.412;2023-07-20T00:28:37;21.90;58.80
66190;DHT22;52992;52.084;5.412;2023-07-20T00:31:04;21.80;58.70
66190;DHT22;52992;52.084;5.412;2023-07-20T00:33:31;21.80;58.90
66190;DHT22;52992;52.084;5.412;2023-07-20T00:35:58;21.80;58.90
66190;DHT22;52992;52.084;5.412;2023-07-20T00:38:25;21.70;59.00
66190;DHT22;52992;52.084;5.412;2023-07-20T00:40:52;21.70;59.00
66190;DHT22;52992;52.084;5.412;2023-07-20T00:43:19;21.70;59.50
66190;DHT22;52992;52.084;5.412;2023-07-20T00:45:46;21.60;58.60
66190;DHT22;52992;52.084;5.412;2023-07-20T00:48:14;21.60;58.80
66190;DHT22;52992;52.084;5.412;2023-07-20T00:50:42;21.50;58.90
66190;DHT22;52992;52.084;5.412;2023-07-20T00:53:10;21.60;58.80
66190;DHT22;52992;52.084;5.412;2023-07-20T00:55:37;21.50;58.80
66190;DHT22;52992;52.084;5.412;2023-07-20T00:58:04;21.50;58.90
66190;DHT22;52992;52.084;5.412;2023-07-20T01:00:31;21.50;58.80
66190;DHT22;52992;52.084;5.412;2023-07-20T01:02:58;21.40;58.90
66190;DHT22;52992;52.084;5.412;2023-07-20T01:05:42;21.40;58.70
66190;DHT22;52992;52.084;5.412;2023-07-20T01:08:32;21.40;58.60
66190;DHT22;52992;52.084;5.412;2023-07-20T01:11:09;21.40;58.60
66190;DHT22;52992;52.084;5.412;2023-07-20T01:13:38;21.50;58.80
66190;DHT22;52992;52.084;5.412;2023-07-20T01:16:05;21.50;58.80
66190;DHT22;52992;52.084;5.412;2023-07-20T01:18:32;21.50;58.70
66190;DHT22;52992;52.084;5.412;2023-07-20T01:21:05;21.50;58.70
66190;DHT22;52992;52.084;5.412;2023-07-20T01:27:15;21.50;58.60
66190;DHT22;52992;52.084;5.412;2023-07-20T01:32:35;21.40;58.20
66190;DHT22;52992;52.084;5.412;2023-07-20T01:35:05;21.40;58.40
66190;DHT22;52992;52.084;5.412;2023-07-20T01:37:34;21.40;58.40
66190;DHT22;52992;52.084;5.412;2023-07-20T01:40:01;21.40;58.50
66190;DHT22;52992;52.084;5.412;2023-07-20T01:42:28;21.30;58.50
66190;DHT22;52992;52.084;5.412;2023-07-20T01:44:55;21.30;58.50
66190;DHT22;52992;52.084;5.412;2023-07-20T01:47:23;21.30;59.10
66190;DHT22;52992;52.084;5.412;2023-07-20T01:49:50;21.30;58.30
66190;DHT22;52992;52.084;5.412;2023-07-20T01:52:17;21.30;58.40
66190;DHT22;52992;52.084;5.412;2023-07-20T01:54:44;21.20;58.20
66190;DHT22;52992;52.084;5.412;2023-07-20T01:57:11;21.20;58.40
66190;DHT22;52992;52.084;5.412;2023-07-20T01:59:38;21.10;58.60
66190;DHT22;52992;52.084;5.412;2023-07-20T02:02:05;21.20;58.70
66190;DHT22;52992;52.084;5.412;2023-07-20T02:04:32;21.10;58.70
66190;DHT22;52992;52.084;5.412;2023-07-20T02:06:59;21.10;58.70
66190;DHT22;52992;52.084;5.412;2023-07-20T02:09:27;21.10;59.50
66190;DHT22;52992;52.084;5.412;2023-07-20T02:11:54;21.10;58.70
66190;DHT22;52992;52.084;5.412;2023-07-20T02:14:21;21.00;58.50
66190;DHT22;52992;52.084;5.412;2023-07-20T02:16:49;21.10;58.50
66190;DHT22;52992;52.084;5.412;2023-07-20T02:19:21;21.10;58.50
66190;DHT22;52992;52.084;5.412;2023-07-20T02:21:48;21.00;58.40
66190;DHT22;52992;52.084;5.412;2023-07-20T02:24:15;21.00;58.20
66190;DHT22;52992;52.084;5.412;2023-07-20T02:26:42;21.00;58.30
66190;DHT22;52992;52.084;5.412;2023-07-20T02:29:09;21.00;58.30
66190;DHT22;52992;52.084;5.412;2023-07-20T02:31:38;21.00;58.20
66190;DHT22;52992;52.084;5.412;2023-07-20T02:34:06;21.00;58.20
66190;DHT22;52992;52.084;5.412;2023-07-20T02:36:34;21.00;58.20
66190;DHT22;52992;52.084;5.412;2023-07-20T02:39:01;20.90;58.30
66190;DHT22;52992;52.084;5.412;2023-07-20T02:41:33;20.90;58.20
66190;DHT22;52992;52.084;5.412;2023-07-20T02:44:00;20.90;58.20
66190;DHT22;52992;52.084;5.412;2023-07-20T02:46:28;20.90;58.20
66190;DHT22;52992;52.084;5.412;2023-07-20T02:48:58;20.90;58.20
66190;DHT22;52992;52.084;5.412;2023-07-20T02:51:24;20.90;58.20
66190;DHT22;52992;52.084;5.412;2023-07-20T02:53:52;20.80;58.10
66190;DHT22;52992;52.084;5.412;2023-07-20T02:56:18;20.80;58.20
66190;DHT22;52992;52.084;5.412;2023-07-20T02:58:46;20.70;58.20
66190;DHT22;52992;52.084;5.412;2023-07-20T03:01:13;20.80;58.20
66190;DHT22;52992;52.084;5.412;2023-07-20T03:03:42;20.70;58.10
66190;DHT22;52992;52.084;5.412;2023-07-20T03:06:14;20.70;58.10
66190;DHT22;52992;52.084;5.412;2023-07-20T03:08:42;20.70;58.10
66190;DHT22;52992;52.084;5.412;2023-07-20T03:11:15;20.70;58.00
66190;DHT22;52992;52.084;5.412;2023-07-20T03:13:43;20.60;57.90
66190;DHT22;52992;52.084;5.412;2023-07-20T03:16:12;20.60;57.90
66190;DHT22;52992;52.084;5.412;2023-07-20T03:18:42;20.60;58.00
66190;DHT22;52992;52.084;5.412;2023-07-20T03:21:10;20.60;58.10
66190;DHT22;52992;52.084;5.412;2023-07-20T03:23:41;20.60;58.20
66190;DHT22;52992;52.084;5.412;2023-07-20T03:26:09;20.60;58.40
66190;DHT22;52992;52.084;5.412;2023-07-20T03:28:37;20.60;58.40
66190;DHT22;52992;52.084;5.412;2023-07-20T03:31:05;20.60;58.20
66190;DHT22;52992;52.084;5.412;2023-07-20T03:33:37;20.60;58.20
66190;DHT22;52992;52.084;5.412;2023-07-20T03:36:04;20.50;58.00
66190;DHT22;52992;52.084;5.412;2023-07-20T03:38:31;20.50;58.00
66190;DHT22;52992;52.084;5.412;2023-07-20T03:41:00;20.50;58.00
66190;DHT22;52992;52.084;5.412;2023-07-20T03:43:28;20.40;58.00
66190;DHT22;52992;52.084;5.412;2023-07-20T03:45:55;20.50;58.30
66190;DHT22;52992;52.084;5.412;2023-07-20T03:48:24;20.50;58.40
66190;DHT22;52992;52.084;5.412;2023-07-20T03:50:53;20.40;58.30
66190;DHT22;52992;52.084;5.412;2023-07-20T03:53:21;20.40;58.50
66190;DHT22;52992;52.084;5.412;2023-07-20T03:55:50;20.40;58.50
66190;DHT22;52992;52.084;5.412;2023-07-20T03:58:18;20.40;58.50
66190;DHT22;52992;52.084;5.412;2023-07-20T04:00:49;20.30;58.50
66190;DHT22;52992;52.084;5.412;2023-07-20T04:03:20;20.30;58.50
66190;DHT22;52992;52.084;5.412;2023-07-20T04:05:47;20.40;58.50
66190;DHT22;52992;52.084;5.412;2023-07-20T04:08:14;20.30;58.60
66190;DHT22;52992;52.084;5.412;2023-07-20T04:10:45;20.30;58.50
66190;DHT22;52992;52.084;5.412;2023-07-20T04:13:12;20.30;58.70
66190;DHT22;52992;52.084;5.412;2023-07-20T04:15:39;20.20;58.90
66190;DHT22;52992;52.084;5.412;2023-07-20T04:18:06;20.20;58.90
66190;DHT22;52992;52.084;5.412;2023-07-20T04:20:34;20.20;59.00
66190;DHT22;52992;52.084;5.412;2023-07-20T04:23:01;20.30;59.10
66190;DHT22;52992;52.084;5.412;2023-07-20T04:25:29;20.30;59.00
66190;DHT22;52992;52.084;5.412;2023-07-20T04:27:57;20.30;58.90
66190;DHT22;52992;52.084;5.412;2023-07-20T04:30:24;20.30;59.00
66190;DHT22;52992;52.084;5.412;2023-07-20T04:32:52;20.40;58.80
66190;DHT22;52992;52.084;5.412;2023-07-20T04:35:51;20.40;58.80
66190;DHT22;52992;52.084;5.412;2023-07-20T04:38:23;20.40;58.80
66190;DHT22;52992;52.084;5.412;2023-07-20T04:41:01;20.40;58.60
66190;DHT22;52992;52.084;5.412;2023-07-20T04:43:32;20.40;58.70
66190;DHT22;52992;52.084;5.412;2023-07-20T04:45:59;20.50;58.70
66190;DHT22;52992;52.084;5.412;2023-07-20T04:48:28;20.60;58.50
66190;DHT22;52992;52.084;5.412;2023-07-20T04:50:56;20.70;58.60
66190;DHT22;52992;52.084;5.412;2023-07-20T04:53:24;20.70;59.20
66190;DHT22;52992;52.084;5.412;2023-07-20T04:55:51;20.70;58.30
66190;DHT22;52992;52.084;5.412;2023-07-20T04:58:23;20.70;58.40
66190;DHT22;52992;52.084;5.412;2023-07-20T05:00:51;20.70;58.20
66190;DHT22;52992;52.084;5.412;2023-07-20T05:03:20;20.70;58.10
66190;DHT22;52992;52.084;5.412;2023-07-20T05:05:48;20.70;58.00
66190;DHT22;52992;52.084;5.412;2023-07-20T05:08:16;20.80;57.70
66190;DHT22;52992;52.084;5.412;2023-07-20T05:10:44;20.90;57.50
66190;DHT22;52992;52.084;5.412;2023-07-20T05:13:11;21.10;57.30
66190;DHT22;52992;52.084;5.412;2023-07-20T05:15:38;21.10;57.10
66190;DHT22;52992;52.084;5.412;2023-07-20T05:18:08;21.20;57.10
66190;DHT22;52992;52.084;5.412;2023-07-20T05:20:35;21.30;57.10
66190;DHT22;52992;52.084;5.412;2023-07-20T05:23:03;21.40;56.70
66190;DHT22;52992;52.084;5.412;2023-07-20T05:25:31;21.40;56.60
66190;DHT22;52992;52.084;5.412;2023-07-20T05:27:58;21.50;56.70
66190;DHT22;52992;52.084;5.412;2023-07-20T05:30:25;21.50;56.70
66190;DHT22;52992;52.084;5.412;2023-07-20T05:32:52;21.50;57.00
66190;DHT22;52992;52.084;5.412;2023-07-20T05:35:21;21.50;57.00
66190;DHT22;52992;52.084;5.412;2023-07-20T05:37:49;21.60;57.00
66190;DHT22;52992;52.084;5.412;2023-07-20T05:40:16;21.70;57.10
66190;DHT22;52992;52.084;5.412;2023-07-20T05:42:48;21.70;57.00
66190;DHT22;52992;52.084;5.412;2023-07-20T05:45:15;21.80;57.00
66190;DHT22;52992;52.084;5.412;2023-07-20T05:47:42;21.80;56.80
66190;DHT22;52992;52.084;5.412;2023-07-20T05:50:10;21.90;57.20
66190;DHT22;52992;52.084;5.412;2023-07-20T05:52:37;21.90;57.00
66190;DHT22;52992;52.084;5.412;2023-07-20T05:55:06;22.00;56.70
66190;DHT22;52992;52.084;5.412;2023-07-20T05:57:33;22.00;56.60
66190;DHT22;52992;52.084;5.412;2023-07-20T06:00:02;22.00;56.80
66190;DHT22;52992;52.084;5.412;2023-07-20T06:02:37;22.10;56.80
66190;DHT22;52992;52.084;5.412;2023-07-20T06:05:06;22.20;56.50
66190;DHT22;52992;52.084;5.412;2023-07-20T06:07:34;22.20;56.40
66190;DHT22;52992;52.084;5.412;2023-07-20T06:10:01;22.30;56.50
66190;DHT22;52992;52.084;5.412;2023-07-20T06:12:29;22.30;56.20
66190;DHT22;52992;52.084;5.412;2023-07-20T06:14:56;22.40;55.90
66190;DHT22;52992;52.084;5.412;2023-07-20T06:17:23;22.50;55.90
66190;DHT22;52992;52.084;5.412;2023-07-20T06:19:50;22.60;55.80
66190;DHT22;52992;52.084;5.412;2023-07-20T06:22:17;22.70;55.60
66190;DHT22;52992;52.084;5.412;2023-07-20T06:24:44;22.80;55.10
66190;DHT22;52992;52.084;5.412;2023-07-20T06:27:12;22.80;55.00
66190;DHT22;52992;52.084;5.412;2023-07-20T06:29:39;23.00;55.00
66190;DHT22;52992;52.084;5.412;2023-07-20T06:32:07;23.10;55.10
66190;DHT22;52992;52.084;5.412;2023-07-20T06:34:34;23.10;55.10
66190;DHT22;52992;52.084;5.412;2023-07-20T06:37:05;23.20;55.00
66190;DHT22;52992;52.084;5.412;2023-07-20T06:39:32;23.30;55.30
66190;DHT22;52992;52.084;5.412;2023-07-20T06:42:02;23.30;54.40
66190;DHT22;52992;52.084;5.412;2023-07-20T06:44:29;23.30;54.60
66190;DHT22;52992;52.084;5.412;2023-07-20T06:46:57;23.50;54.50
66190;DHT22;52992;52.084;5.412;2023-07-20T06:49:27;23.50;54.30
66190;DHT22;52992;52.084;5.412;2023-07-20T06:51:55;23.50;54.10
66190;DHT22;52992;52.084;5.412;2023-07-20T06:54:25;23.50;54.30
66190;DHT22;52992;52.084;5.412;2023-07-20T06:56:53;23.40;54.00
66190;DHT22;52992;52.084;5.412;2023-07-20T06:59:23;23.40;54.10
66190;DHT22;52992;52.084;5.412;2023-07-20T07:01:51;23.30;54.30
66190;DHT22;52992;52.084;5.412;2023-07-20T07:04:18;23.40;54.10
66190;DHT22;52992;52.084;5.412;2023-07-20T07:06:46;23.70;53.30
66190;DHT22;52992;52.084;5.412;2023-07-20T07:09:13;24.00;52.30
66190;DHT22;52992;52.084;5.412;2023-07-20T07:11:40;24.30;51.40
66190;DHT22;52992;52.084;5.412;2023-07-20T07:14:07;24.40;51.10
66190;DHT22;52992;52.084;5.412;2023-07-20T07:16:35;24.60;50.30
66190;DHT22;52992;52.084;5.412;2023-07-20T07:19:05;24.80;49.40
66190;DHT22;52992;52.084;5.412;2023-07-20T07:21:32;24.90;48.90
66190;DHT22;52992;52.084;5.412;2023-07-20T07:23:59;25.10;48.70
66190;DHT22;52992;52.084;5.412;2023-07-20T07:26:27;25.20;48.00
66190;DHT22;52992;52.084;5.412;2023-07-20T07:28:54;25.40;47.30
66190;DHT22;52992;52.084;5.412;2023-07-20T07:31:21;25.50;46.00
66190;DHT22;52992;52.084;5.412;2023-07-20T07:33:49;25.30;45.60
66190;DHT22;52992;52.084;5.412;2023-07-20T07:36:16;25.10;46.70
66190;DHT22;52992;52.084;5.412;2023-07-20T07:38:43;25.10;47.70
66190;DHT22;52992;52.084;5.412;2023-07-20T07:41:14;25.10;48.50
66190;DHT22;52992;52.084;5.412;2023-07-20T07:43:41;24.90;49.10
66190;DHT22;52992;52.084;5.412;2023-07-20T07:46:08;24.60;49.80
66190;DHT22;52992;52.084;5.412;2023-07-20T07:48:35;24.40;50.50
66190;DHT22;52992;52.084;5.412;2023-07-20T07:51:03;24.20;50.30
66190;DHT22;52992;52.084;5.412;2023-07-20T07:53:30;24.20;50.30
66190;DHT22;52992;52.084;5.412;2023-07-20T07:55:58;24.20;50.30
66190;DHT22;52992;52.084;5.412;2023-07-20T07:58:25;24.10;50.30
66190;DHT22;52992;52.084;5.412;2023-07-20T08:00:52;24.10;50.10
66190;DHT22;52992;52.084;5.412;2023-07-20T08:03:19;24.20;49.80
66190;DHT22;52992;52.084;5.412;2023-07-20T08:05:47;24.40;49.00
66190;DHT22;52992;52.084;5.412;2023-07-20T08:08:14;24.70;48.40
66190;DHT22;52992;52.084;5.412;2023-07-20T08:10:41;24.90;47.50
66190;DHT22;52992;52.084;5.412;2023-07-20T08:13:08;25.10;45.80
66190;DHT22;52992;52.084;5.412;2023-07-20T08:15:36;25.20;44.70
66190;DHT22;52992;52.084;5.412;2023-07-20T08:18:04;25.40;44.30
66190;DHT22;52992;52.084;5.412;2023-07-20T08:20:33;25.50;42.00
66190;DHT22;52992;52.084;5.412;2023-07-20T08:23:02;25.60;42.10
66190;DHT22;52992;52.084;5.412;2023-07-20T08:25:30;25.70;41.00
66190;DHT22;52992;52.084;5.412;2023-07-20T08:27:57;25.70;40.50
66190;DHT22;52992;52.084;5.412;2023-07-20T08:30:24;25.70;41.10
66190;DHT22;52992;52.084;5.412;2023-07-20T08:32:51;25.70;40.00
66190;DHT22;52992;52.084;5.412;2023-07-20T08:35:18;25.80;40.20
66190;DHT22;52992;52.084;5.412;2023-07-20T08:37:48;25.80;40.00
66190;DHT22;52992;52.084;5.412;2023-07-20T08:40:16;25.80;39.60
66190;DHT22;52992;52.084;5.412;2023-07-20T08:42:44;25.80;39.40
66190;DHT22;52992;52.084;5.412;2023-07-20T08:45:13;25.90;39.50
66190;DHT22;52992;52.084;5.412;2023-07-20T08:47:42;26.00;38.70
66190;DHT22;52992;52.084;5.412;2023-07-20T08:50:15;26.10;38.30
66190;DHT22;52992;52.084;5.412;2023-07-20T08:52:43;26.10;39.10
66190;DHT22;52992;52.084;5.412;2023-07-20T08:55:10;26.00;39.30
66190;DHT22;52992;52.084;5.412;2023-07-20T08:57:40;25.80;40.00
66190;DHT22;52992;52.084;5.412;2023-07-20T09:00:09;25.50;41.40
66190;DHT22;52992;52.084;5.412;2023-07-20T09:02:41;25.20;42.10
66190;DHT22;52992;52.084;5.412;2023-07-20T09:05:10;25.10;42.80
66190;DHT22;52992;52.084;5.412;2023-07-20T09:07:39;25.10;43.00
66190;DHT22;52992;52.084;5.412;2023-07-20T09:10:08;25.50;41.20
66190;DHT22;52992;52.084;5.412;2023-07-20T09:12:38;25.80;39.30
66190;DHT22;52992;52.084;5.412;2023-07-20T09:15:07;26.10;38.70
66190;DHT22;52992;52.084;5.412;2023-07-20T09:17:34;26.40;37.80
66190;DHT22;52992;52.084;5.412;2023-07-20T09:20:08;26.60;37.20
66190;DHT22;52992;52.084;5.412;2023-07-20T09:22:38;26.80;37.30
66190;DHT22;52992;52.084;5.412;2023-07-20T09:27:46;27.20;36.60
66190;DHT22;52992;52.084;5.412;2023-07-20T09:30:15;27.20;36.20
66190;DHT22;52992;52.084;5.412;2023-07-20T09:32:47;27.10;36.20
66190;DHT22;52992;52.084;5.412;2023-07-20T09:35:19;26.80;35.80
66190;DHT22;52992;52.084;5.412;2023-07-20T09:40:41;26.20;34.60
66190;DHT22;52992;52.084;5.412;2023-07-20T09:43:12;26.10;36.40
66190;DHT22;52992;52.084;5.412;2023-07-20T09:45:42;26.50;36.00
66190;DHT22;52992;52.084;5.412;2023-07-20T09:48:12;26.90;35.70
66190;DHT22;52992;52.084;5.412;2023-07-20T09:50:49;27.30;35.60
66190;DHT22;52992;52.084;5.412;2023-07-20T09:53:18;27.70;35.70
66190;DHT22;52992;52.084;5.412;2023-07-20T09:55:47;28.00;35.50
66190;DHT22;52992;52.084;5.412;2023-07-20T09:58:16;28.40;35.10
66190;DHT22;52992;52.084;5.412;2023-07-20T10:00:44;28.80;32.90
66190;DHT22;52992;52.084;5.412;2023-07-20T10:03:21;29.00;32.40
66190;DHT22;52992;52.084;5.412;2023-07-20T10:05:57;29.20;32.30
66190;DHT22;52992;52.084;5.412;2023-07-20T10:08:26;29.30;31.90
66190;DHT22;52992;52.084;5.412;2023-07-20T10:11:00;29.50;31.80
66190;DHT22;52992;52.084;5.412;2023-07-20T10:13:30;29.70;31.40
66190;DHT22;52992;52.084;5.412;2023-07-20T10:16:02;30.10;32.00
66190;DHT22;52992;52.084;5.412;2023-07-20T10:21:01;31.90;28.80
66190;DHT22;52992;52.084;5.412;2023-07-20T10:23:33;33.20;27.10
66190;DHT22;52992;52.084;5.412;2023-07-20T10:26:01;34.40;25.00
66190;DHT22;52992;52.084;5.412;2023-07-20T10:28:29;33.60;26.30
66190;DHT22;52992;52.084;5.412;2023-07-20T10:30:56;32.20;27.50
66190;DHT22;52992;52.084;5.412;2023-07-20T10:33:24;30.80;28.70
66190;DHT22;52992;52.084;5.412;2023-07-20T10:36:02;29.70;30.40
66190;DHT22;52992;52.084;5.412;2023-07-20T10:38:53;30.20;29.50
66190;DHT22;52992;52.084;5.412;2023-07-20T10:41:34;32.60;25.40
66190;DHT22;52992;52.084;5.412;2023-07-20T10:44:07;34.70;23.30
66190;DHT22;52992;52.084;5.412;2023-07-20T10:49:08;36.60;21.70
66190;DHT22;52992;52.084;5.412;2023-07-20T10:51:39;37.80;20.90
66190;DHT22;52992;52.084;5.412;2023-07-20T10:56:47;38.60;19.50
66190;DHT22;52992;52.084;5.412;2023-07-20T10:59:36;38.80;18.30
66190;DHT22;52992;52.084;5.412;2023-07-20T11:02:08;38.90;18.40
66190;DHT22;52992;52.084;5.412;2023-07-20T11:04:40;39.30;18.60
66190;DHT22;52992;52.084;5.412;2023-07-20T11:07:07;39.70;18.40
66190;DHT22;52992;52.084;5.412;2023-07-20T11:09:38;38.90;19.10
66190;DHT22;52992;52.084;5.412;2023-07-20T11:12:17;37.30;20.80
66190;DHT22;52992;52.084;5.412;2023-07-20T11:14:56;35.70;21.90
66190;DHT22;52992;52.084;5.412;2023-07-20T11:17:31;36.90;20.70
66190;DHT22;52992;52.084;5.412;2023-07-20T11:19:59;38.70;19.60
66190;DHT22;52992;52.084;5.412;2023-07-20T11:22:33;39.60;18.80
66190;DHT22;52992;52.084;5.412;2023-07-20T11:25:00;40.40;18.30
66190;DHT22;52992;52.084;5.412;2023-07-20T11:27:27;40.10;18.40
66190;DHT22;52992;52.084;5.412;2023-07-20T11:29:56;37.90;20.70
66190;DHT22;52992;52.084;5.412;2023-07-20T11:32:24;35.20;23.90
66190;DHT22;52992;52.084;5.412;2023-07-20T11:34:51;33.30;26.40
66190;DHT22;52992;52.084;5.412;2023-07-20T11:37:18;32.00;27.10
66190;DHT22;52992;52.084;5.412;2023-07-20T11:39:46;31.10;28.10
66190;DHT22;52992;52.084;5.412;2023-07-20T11:42:13;30.40;28.70
66190;DHT22;52992;52.084;5.412;2023-07-20T11:45:03;30.10;28.80
66190;DHT22;52992;52.084;5.412;2023-07-20T11:47:32;29.90;27.70
66190;DHT22;52992;52.084;5.412;2023-07-20T11:50:03;30.60;27.00
66190;DHT22;52992;52.084;5.412;2023-07-20T11:52:31;31.50;26.70
66190;DHT22;52992;52.084;5.412;2023-07-20T11:54:58;31.30;27.10
66190;DHT22;52992;52.084;5.412;2023-07-20T11:57:25;30.80;26.80
66190;DHT22;52992;52.084;5.412;2023-07-20T11:59:58;30.50;27.80
66190;DHT22;52992;52.084;5.412;2023-07-20T12:02:29;30.20;28.30
66190;DHT22;52992;52.084;5.412;2023-07-20T12:04:57;29.80;28.80
66190;DHT22;52992;52.084;5.412;2023-07-20T12:07:27;29.50;29.60
66190;DHT22;52992;52.084;5.412;2023-07-20T12:10:09;29.20;30.00
66190;DHT22;52992;52.084;5.412;2023-07-20T12:12:41;29.20;29.10
66190;DHT22;52992;52.084;5.412;2023-07-20T12:15:17;29.60;29.00
66190;DHT22;52992;52.084;5.412;2023-07-20T12:17:49;30.60;28.00
66190;DHT22;52992;52.084;5.412;2023-07-20T12:20:37;31.30;27.60
66190;DHT22;52992;52.084;5.412;2023-07-20T12:23:09;31.70;27.40
66190;DHT22;52992;52.084;5.412;2023-07-20T12:25:38;31.90;27.00
66190;DHT22;52992;52.084;5.412;2023-07-20T12:28:11;31.50;27.10
66190;DHT22;52992;52.084;5.412;2023-07-20T12:30:39;30.50;28.10
66190;DHT22;52992;52.084;5.412;2023-07-20T12:33:07;29.80;29.20
66190;DHT22;52992;52.084;5.412;2023-07-20T12:35:34;29.20;29.90
66190;DHT22;52992;52.084;5.412;2023-07-20T12:38:01;29.10;28.90
66190;DHT22;52992;52.084;5.412;2023-07-20T12:40:29;29.20;29.40
66190;DHT22;52992;52.084;5.412;2023-07-20T12:42:58;29.40;29.00
66190;DHT22;52992;52.084;5.412;2023-07-20T12:45:25;29.50;29.20
66190;DHT22;52992;52.084;5.412;2023-07-20T12:47:52;29.40;28.90
66190;DHT22;52992;52.084;5.412;2023-07-20T12:50:19;29.10;29.60
66190;DHT22;52992;52.084;5.412;2023-07-20T12:52:46;28.80;29.70
66190;DHT22;52992;52.084;5.412;2023-07-20T12:55:13;28.40;30.50
66190;DHT22;52992;52.084;5.412;2023-07-20T12:57:41;28.20;31.40
66190;DHT22;52992;52.084;5.412;2023-07-20T13:00:10;27.90;31.40
66190;DHT22;52992;52.084;5.412;2023-07-20T13:02:39;27.80;31.70
66190;DHT22;52992;52.084;5.412;2023-07-20T13:05:06;27.60;31.80
66190;DHT22;52992;52.084;5.412;2023-07-20T13:07:35;27.50;31.00
66190;DHT22;52992;52.084;5.412;2023-07-20T13:10:07;27.40;30.60
66190;DHT22;52992;52.084;5.412;2023-07-20T13:12:35;27.30;30.40
66190;DHT22;52992;52.084;5.412;2023-07-20T13:15:04;27.40;31.00
66190;DHT22;52992;52.084;5.412;2023-07-20T13:17:35;27.40;31.30
66190;DHT22;52992;52.084;5.412;2023-07-20T13:20:03;27.30;31.60
66190;DHT22;52992;52.084;5.412;2023-07-20T13:22:34;27.20;31.70
66190;DHT22;52992;52.084;5.412;2023-07-20T13:25:02;27.10;32.00
66190;DHT22;52992;52.084;5.412;2023-07-20T13:27:29;27.00;32.20
66190;DHT22;52992;52.084;5.412;2023-07-20T13:29:59;26.90;31.20
66190;DHT22;52992;52.084;5.412;2023-07-20T13:32:29;26.80;31.60
66190;DHT22;52992;52.084;5.412;2023-07-20T13:35:00;26.90;31.50
66190;DHT22;52992;52.084;5.412;2023-07-20T13:37:28;27.10;31.80
66190;DHT22;52992;52.084;5.412;2023-07-20T13:39:55;27.30;31.70
66190;DHT22;52992;52.084;5.412;2023-07-20T13:42:23;27.40;31.80
66190;DHT22;52992;52.084;5.412;2023-07-20T13:44:51;27.50;31.20
66190;DHT22;52992;52.084;5.412;2023-07-20T13:47:18;27.60;32.00
66190;DHT22;52992;52.084;5.412;2023-07-20T13:49:48;27.70;31.70
66190;DHT22;52992;52.084;5.412;2023-07-20T13:52:30;27.70;31.40
66190;DHT22;52992;52.084;5.412;2023-07-20T13:55:00;27.80;30.60
66190;DHT22;52992;52.084;5.412;2023-07-20T13:57:31;27.90;30.60
66190;DHT22;52992;52.084;5.412;2023-07-20T14:00:02;28.10;32.20
66190;DHT22;52992;52.084;5.412;2023-07-20T14:02:37;28.00;32.30
66190;DHT22;52992;52.084;5.412;2023-07-20T14:05:08;28.10;31.60
66190;DHT22;52992;52.084;5.412;2023-07-20T14:07:39;28.10;31.50
66190;DHT22;52992;52.084;5.412;2023-07-20T14:10:07;28.10;31.80
66190;DHT22;52992;52.084;5.412;2023-07-20T14:12:37;28.00;31.50
66190;DHT22;52992;52.084;5.412;2023-07-20T14:15:05;27.80;31.70
66190;DHT22;52992;52.084;5.412;2023-07-20T14:17:32;27.80;31.30
66190;DHT22;52992;52.084;5.412;2023-07-20T14:19:59;27.70;31.90
66190;DHT22;52992;52.084;5.412;2023-07-20T14:22:48;27.70;31.80
66190;DHT22;52992;52.084;5.412;2023-07-20T14:25:17;27.60;32.00
66190;DHT22;52992;52.084;5.412;2023-07-20T14:27:46;27.60;32.00
66190;DHT22;52992;52.084;5.412;2023-07-20T14:30:13;27.70;31.90
66190;DHT22;52992;52.084;5.412;2023-07-20T14:32:41;27.80;31.40
66190;DHT22;52992;52.084;5.412;2023-07-20T14:35:08;27.80;31.40
66190;DHT22;52992;52.084;5.412;2023-07-20T14:37:37;27.70;31.80
66190;DHT22;52992;52.084;5.412;2023-07-20T14:40:07;27.80;31.30
66190;DHT22;52992;52.084;5.412;2023-07-20T14:42:35;27.80;31.10
66190;DHT22;52992;52.084;5.412;2023-07-20T14:45:02;27.90;31.30
66190;DHT22;52992;52.084;5.412;2023-07-20T14:47:30;28.00;32.20
66190;DHT22;52992;52.084;5.412;2023-07-20T14:49:59;28.00;32.50
66190;DHT22;52992;52.084;5.412;2023-07-20T14:52:27;27.90;31.80
66190;DHT22;52992;52.084;5.412;2023-07-20T14:54:55;27.80;32.40
66190;DHT22;52992;52.084;5.412;2023-07-20T14:57:22;27.80;32.30
66190;DHT22;52992;52.084;5.412;2023-07-20T14:59:50;27.70;32.40
66190;DHT22;52992;52.084;5.412;2023-07-20T15:02:17;27.60;32.60
66190;DHT22;52992;52.084;5.412;2023-07-20T15:04:48;27.70;31.80
66190;DHT22;52992;52.084;5.412;2023-07-20T15:07:17;27.60;31.70
66190;DHT22;52992;52.084;5.412;2023-07-20T15:09:54;27.50;32.20
66190;DHT22;52992;52.084;5.412;2023-07-20T15:12:21;27.50;32.10
66190;DHT22;52992;52.084;5.412;2023-07-20T15:17:35;27.50;32.40
66190;DHT22;52992;52.084;5.412;2023-07-20T15:20:04;27.50;32.70
66190;DHT22;52992;52.084;5.412;2023-07-20T15:22:33;27.50;32.30
66190;DHT22;52992;52.084;5.412;2023-07-20T15:25:00;27.60;32.20
66190;DHT22;52992;52.084;5.412;2023-07-20T15:27:28;27.60;32.40
66190;DHT22;52992;52.084;5.412;2023-07-20T15:29:55;27.50;33.00
66190;DHT22;52992;52.084;5.412;2023-07-20T15:32:26;27.50;33.70
66190;DHT22;52992;52.084;5.412;2023-07-20T15:34:53;27.40;33.40
66190;DHT22;52992;52.084;5.412;2023-07-20T15:37:20;27.40;33.40
66190;DHT22;52992;52.084;5.412;2023-07-20T15:39:48;27.30;33.00
66190;DHT22;52992;52.084;5.412;2023-07-20T15:42:17;27.30;31.70
66190;DHT22;52992;52.084;5.412;2023-07-20T15:44:44;27.30;32.00
66190;DHT22;52992;52.084;5.412;2023-07-20T15:47:11;27.20;32.40
66190;DHT22;52992;52.084;5.412;2023-07-20T15:49:38;27.10;32.60
66190;DHT22;52992;52.084;5.412;2023-07-20T15:52:06;27.10;32.90
66190;DHT22;52992;52.084;5.412;2023-07-20T15:54:34;27.10;32.60
66190;DHT22;52992;52.084;5.412;2023-07-20T15:57:01;27.20;32.40
66190;DHT22;52992;52.084;5.412;2023-07-20T15:59:28;27.20;32.00
66190;DHT22;52992;52.084;5.412;2023-07-20T16:01:55;27.10;31.80
66190;DHT22;52992;52.084;5.412;2023-07-20T16:04:22;27.10;32.20